Time;durP1;ratioP1;P1;durP2;ratioP2;P2;SDS_P1;SDS_P2;PMS_P1;PMS_P2;Temp;Humidity;BMP_temperature;BMP_pressure;BME280_temperature;BME280_humidity;BME280_pressure;Samples;Min_cycle;Max_cycle;Signal;HPM_P1;HPM_P2
2023/06/10 00:02:10;;;;;;;4.97;4.47;;;16.50;99.90;;;;;;5033898;28;20816;-87
2023/06/10 00:04:36;;;;;;;6.80;5.10;;;16.40;99.90;;;;;;5019038;28;21146;-88
2023/06/10 00:07:08;;;;;;;6.50;4.80;;;16.40;99.90;;;;;;5017499;28;20694;-89
2023/06/10 00:09:36;;;;;;;8.73;5.47;;;16.30;99.90;;;;;;5021834;28;20245;-88
2023/06/10 00:12:02;;;;;;;9.20;7.80;;;16.30;99.90;;;;;;5026924;28;20465;-89
2023/06/10 00:14:28;;;;;;;6.23;5.30;;;16.20;99.90;;;;;;5030929;28;20466;-89
2023/06/10 00:16:55;;;;;;;5.80;4.80;;;16.20;99.90;;;;;;5019190;28;20475;-88
2023/06/10 00:19:25;;;;;;;6.63;4.27;;;16.20;99.90;;;;;;5019127;28;20201;-89
2023/06/10 00:21:52;;;;;;;6.70;4.90;;;;;;;;;;5016001;28;20456;-89
2023/06/10 00:24:18;;;;;;;7.50;4.80;;;16.10;99.90;;;;;;5030840;28;20495;-88
2023/06/10 00:26:43;;;;;;;7.37;5.10;;;16.10;99.90;;;;;;5020940;28;21077;-88
2023/06/10 00:29:09;;;;;;;7.90;5.47;;;16.50;99.90;;;;;;5027857;28;20193;-88
2023/06/10 00:31:36;;;;;;;8.20;4.87;;;15.90;99.90;;;;;;5000375;28;20217;-88
2023/06/10 00:34:02;;;;;;;6.13;4.77;;;15.80;99.90;;;;;;5005005;28;20276;-89
2023/06/10 00:36:28;;;;;;;5.63;4.53;;;;;;;;;;5028987;28;21579;-87
2023/06/10 00:38:54;;;;;;;5.23;4.27;;;;;;;;;;5027601;28;20190;-87
2023/06/10 00:41:20;;;;;;;5.07;4.00;;;;;;;;;;5029813;28;20524;-88
2023/06/10 00:43:46;;;;;;;4.57;4.20;;;;;;;;;;5024639;28;20436;-89
2023/06/10 00:46:13;;;;;;;7.00;5.70;;;;;;;;;;5026649;28;20428;-88
2023/06/10 00:48:41;;;;;;;10.73;5.60;;;15.80;99.90;;;;;;5026613;28;20444;-88
2023/06/10 00:51:08;;;;;;;5.33;4.13;;;;;;;;;;5006878;28;21269;-88
2023/06/10 00:53:36;;;;;;;6.87;4.97;;;15.70;99.90;;;;;;5022173;28;20452;-89
2023/06/10 00:56:02;;;;;;;5.30;3.87;;;;;;;;;;5015204;28;20439;-89
2023/06/10 00:58:28;;;;;;;6.33;4.60;;;;;;;;;;5034342;28;20454;-89
2023/06/10 01:00:54;;;;;;;6.13;4.37;;;15.80;99.90;;;;;;5012361;28;20479;-89
2023/06/10 01:03:20;;;;;;;8.57;4.80;;;;;;;;;;5020878;28;21129;-89
2023/06/10 01:06:10;;;;;;;6.77;4.93;;;15.70;99.90;;;;;;5022035;28;20189;-89
2023/06/10 01:09:02;;;;;;;5.93;3.47;;;15.60;99.90;;;;;;5039169;28;20419;-88
2023/06/10 01:11:47;;;;;;;6.30;4.77;;;15.40;99.90;;;;;;5034100;28;20433;-89
2023/06/10 01:14:14;;;;;;;6.13;3.90;;;15.40;99.90;;;;;;5027349;28;20437;-89
2023/06/10 01:16:40;;;;;;;4.43;4.00;;;15.40;99.90;;;;;;5025458;28;20455;-89
2023/06/10 01:19:07;;;;;;;5.97;4.30;;;;;;;;;;4999128;28;20499;-89
2023/06/10 01:21:33;;;;;;;4.37;3.93;;;15.40;99.90;;;;;;5018364;28;21503;-89
2023/06/10 01:23:59;;;;;;;5.27;3.83;;;15.40;99.90;;;;;;5018538;28;20448;-88
2023/06/10 01:26:33;;;;;;;4.20;3.80;;;15.90;99.90;;;;;;5027777;28;20746;-88
2023/06/10 01:29:07;;;;;;;5.50;3.97;;;15.30;99.90;;;;;;5031899;28;20475;-88
2023/06/10 01:31:43;;;;;;;4.20;3.80;;;15.10;99.90;;;;;;5019795;28;20490;-88
2023/06/10 01:34:10;;;;;;;5.07;4.23;;;15.10;99.90;;;;;;5030010;28;21039;-87
2023/06/10 01:36:38;;;;;;;4.57;3.73;;;14.90;99.90;;;;;;5020341;28;20459;-88
2023/06/10 01:39:05;;;;;;;5.60;4.20;;;14.90;99.90;;;;;;5018909;28;20440;-89
2023/06/10 01:41:32;;;;;;;5.03;4.20;;;15.80;99.90;;;;;;5020493;28;20440;-88
2023/06/10 01:43:57;;;;;;;13.53;3.53;;;15.00;99.90;;;;;;4991073;28;20444;-89
2023/06/10 01:46:23;;;;;;;4.53;3.80;;;14.20;99.90;;;;;;5004902;28;21035;-88
2023/06/10 01:48:49;;;;;;;4.67;4.17;;;14.90;99.90;;;;;;5001146;28;20190;-88
2023/06/10 01:51:14;;;;;;;4.80;3.73;;;15.20;99.90;;;;;;5030571;28;20220;-89
2023/06/10 01:53:40;;;;;;;7.67;4.97;;;;;;;;;;5020215;28;20723;-87
2023/06/10 01:56:06;;;;;;;4.87;4.10;;;15.00;99.90;;;;;;5019491;28;20510;-88
2023/06/10 01:58:32;;;;;;;5.37;4.40;;;;;;;;;;5026436;28;20475;-88
2023/06/10 02:00:58;;;;;;;10.20;4.43;;;;;;;;;;5024312;28;20198;-89
2023/06/10 02:03:23;;;;;;;5.90;4.53;;;14.90;99.90;;;;;;5032137;28;20490;-89
2023/06/10 02:05:49;;;;;;;5.37;4.50;;;14.90;99.90;;;;;;5015432;28;20456;-88
2023/06/10 02:08:15;;;;;;;8.23;4.70;;;14.90;99.90;;;;;;5025588;28;20190;-89
2023/06/10 02:10:41;;;;;;;6.33;4.57;;;;;;;;;;5017996;28;20192;-89
2023/06/10 02:13:06;;;;;;;5.23;4.17;;;14.80;99.90;;;;;;5021630;28;20321;-88
2023/06/10 02:15:32;;;;;;;5.13;3.73;;;14.70;99.90;;;;;;5024045;28;20466;-88
2023/06/10 02:17:57;;;;;;;5.90;4.50;;;14.60;99.90;;;;;;5032471;28;20185;-89
2023/06/10 02:20:23;;;;;;;5.70;4.40;;;14.60;99.90;;;;;;5030375;28;20383;-89
2023/06/10 02:22:49;;;;;;;9.80;3.60;;;;;;;;;;5008746;28;20320;-89
2023/06/10 02:25:15;;;;;;;7.07;5.20;;;14.50;99.90;;;;;;5032895;28;20182;-88
2023/06/10 02:27:40;;;;;;;6.50;4.40;;;14.50;99.90;;;;;;5024627;28;20432;-90
2023/06/10 02:30:09;;;;;;;7.37;4.47;;;14.40;99.90;;;;;;5024655;28;20587;-89
2023/06/10 02:32:34;;;;;;;13.90;5.40;;;14.40;99.90;;;;;;5022722;28;20197;-89
2023/06/10 02:35:00;;;;;;;6.57;4.30;;;14.40;99.90;;;;;;5036439;28;20440;-89
2023/06/10 02:37:26;;;;;;;5.53;4.87;;;;;;;;;;5046950;28;20200;-89
2023/06/10 02:39:52;;;;;;;5.40;4.67;;;;;;;;;;5034835;28;20197;-89
2023/06/10 02:42:17;;;;;;;6.37;4.73;;;14.30;99.90;;;;;;5038972;28;20470;-89
2023/06/10 02:44:43;;;;;;;8.43;5.40;;;;;;;;;;5028777;28;20452;-88
2023/06/10 02:47:09;;;;;;;7.73;6.03;;;14.30;99.90;;;;;;5031464;28;20197;-89
2023/06/10 02:49:35;;;;;;;6.03;4.97;;;;;;;;;;5033376;28;20438;-90
2023/06/10 02:52:01;;;;;;;9.57;5.13;;;;;;;;;;5035968;28;20206;-89
2023/06/10 02:54:27;;;;;;;7.50;5.50;;;;;;;;;;5015653;28;20474;-88
2023/06/10 02:56:55;;;;;;;6.13;5.20;;;;;;;;;;5040584;28;21011;-89
2023/06/10 02:59:21;;;;;;;8.30;5.60;;;;;;;;;;5043552;28;20455;-89
2023/06/10 03:01:47;;;;;;;8.97;5.27;;;;;;;;;;5034264;28;20466;-89
2023/06/10 03:04:14;;;;;;;6.00;5.10;;;;;;;;;;5025989;28;20906;-89
2023/06/10 03:06:41;;;;;;;6.77;5.30;;;14.20;99.90;;;;;;5028429;28;20478;-88
2023/06/10 03:09:10;;;;;;;8.67;5.73;;;;;;;;;;5020191;28;20435;-87
2023/06/10 03:11:36;;;;;;;6.20;4.67;;;;;;;;;;5031096;28;20562;-88
2023/06/10 03:14:01;;;;;;;10.73;6.10;;;14.10;99.90;;;;;;5031577;28;20969;-87
2023/06/10 03:16:27;;;;;;;8.30;5.80;;;;;;;;;;5034825;28;20447;-88
2023/06/10 03:18:53;;;;;;;9.00;5.00;;;;;;;;;;5030461;28;20178;-88
2023/06/10 03:21:20;;;;;;;7.17;5.80;;;;;;;;;;5025114;28;20460;-88
2023/06/10 03:23:46;;;;;;;6.30;4.97;;;;;;;;;;5028772;28;20431;-88
2023/06/10 03:26:15;;;;;;;7.77;5.97;;;;;;;;;;5025366;28;20429;-88
2023/06/10 03:28:40;;;;;;;6.67;5.23;;;14.30;99.90;;;;;;5030892;28;20563;-89
2023/06/10 03:31:06;;;;;;;7.07;4.83;;;14.30;99.90;;;;;;5026843;28;20539;-89
2023/06/10 03:33:32;;;;;;;8.00;6.03;;;14.30;99.90;;;;;;5028681;28;20220;-88
2023/06/10 03:35:58;;;;;;;5.30;4.73;;;;;;;;;;5025595;28;21208;-88
2023/06/10 03:38:24;;;;;;;6.20;4.97;;;14.40;99.90;;;;;;5024930;28;20432;-87
2023/06/10 03:40:50;;;;;;;8.00;5.50;;;14.40;99.90;;;;;;5006824;28;20487;-88
2023/06/10 03:43:16;;;;;;;8.10;5.27;;;;;;;;;;5034205;28;20597;-87
2023/06/10 03:45:42;;;;;;;8.70;4.90;;;;;;;;;;5023906;28;20264;-87
2023/06/10 03:48:08;;;;;;;6.20;5.43;;;;;;;;;;5028952;28;20440;-88
2023/06/10 03:50:36;;;;;;;6.63;5.07;;;14.50;99.90;;;;;;5035553;28;20437;-88
2023/06/10 03:53:01;;;;;;;6.27;4.80;;;14.50;99.90;;;;;;5021621;28;21267;-87
2023/06/10 03:55:27;;;;;;;6.97;4.80;;;14.60;99.90;;;;;;5014885;28;20462;-87
2023/06/10 03:57:52;;;;;;;5.93;4.97;;;14.70;99.90;;;;;;5024943;28;20406;-87
2023/06/10 04:00:21;;;;;;;10.13;6.67;;;14.70;99.90;;;;;;5027579;28;20230;-87
2023/06/10 04:02:48;;;;;;;7.40;5.50;;;14.70;99.90;;;;;;5039345;28;20253;-87
2023/06/10 04:05:15;;;;;;;7.77;6.40;;;14.80;99.90;;;;;;5033715;28;20449;-88
2023/06/10 04:07:42;;;;;;;4.53;3.77;;;14.90;99.90;;;;;;5012930;28;20512;-88
2023/06/10 04:10:08;;;;;;;6.90;5.13;;;15.10;99.90;;;;;;5034859;28;20470;-87
2023/06/10 04:12:35;;;;;;;7.27;5.57;;;15.20;99.90;;;;;;5014085;28;20453;-89
2023/06/10 04:15:00;;;;;;;4.47;3.90;;;15.30;99.90;;;;;;5003271;28;20858;-85
2023/06/10 04:17:26;;;;;;;8.50;5.30;;;16.00;99.90;;;;;;5025966;28;22165;-88
2023/06/10 04:19:52;;;;;;;6.07;4.83;;;17.70;99.90;;;;;;5007951;28;21225;-87
2023/06/10 04:22:18;;;;;;;5.03;4.17;;;19.70;99.90;;;;;;5000740;28;20457;-87
2023/06/10 04:24:44;;;;;;;6.80;5.33;;;21.50;99.90;;;;;;5025565;28;20190;-88
2023/06/10 04:27:10;;;;;;;4.77;4.30;;;22.70;99.90;;;;;;5018836;28;20502;-88
2023/06/10 04:29:36;;;;;;;7.30;5.40;;;24.80;99.90;;;;;;5018536;28;20880;-89
2023/06/10 04:32:02;;;;;;;5.37;4.07;;;;;;;;;;5015427;28;20539;-85
2023/06/10 04:34:28;;;;;;;5.63;4.30;;;;;;;;;;5018642;28;20441;-87
2023/06/10 04:36:54;;;;;;;4.90;4.40;;;;;;;;;;5021985;28;20552;-89
2023/06/10 04:39:20;;;;;;;6.67;5.50;;;;;;;;;;5025575;28;20701;-87
2023/06/10 04:41:46;;;;;;;4.23;3.87;;;;;;;;;;5025675;28;21046;-88
2023/06/10 04:44:13;;;;;;;5.40;4.90;;;;;;;;;;5031731;28;20487;-88
2023/06/10 04:46:39;;;;;;;4.70;4.20;;;;;;;;;;5012795;28;20442;-89
2023/06/10 04:49:05;;;;;;;5.03;4.53;;;;;;;;;;5014229;28;20430;-86
2023/06/10 04:51:32;;;;;;;6.07;5.50;;;;;;;;;;5020072;28;20446;-89
2023/06/10 04:53:58;;;;;;;5.53;5.03;;;;;;;;;;5025822;28;20426;-88
2023/06/10 04:56:24;;;;;;;8.60;6.10;;;;;;;;;;5027689;28;20429;-89
2023/06/10 04:58:50;;;;;;;6.90;6.30;;;;;;;;;;5024417;28;20424;-86
2023/06/10 05:01:16;;;;;;;6.20;5.80;;;;;;;;;;5019348;28;20489;-89
2023/06/10 05:03:42;;;;;;;7.03;6.43;;;;;;;;;;5009996;28;20452;-90
2023/06/10 05:06:08;;;;;;;8.13;7.17;;;;;;;;;;5011811;28;20436;-88
2023/06/10 05:08:34;;;;;;;7.73;7.03;;;;;;;;;;5022179;28;20446;-89
2023/06/10 05:11:00;;;;;;;6.40;5.97;;;;;;;;;;5019531;28;20432;-88
2023/06/10 05:13:26;;;;;;;6.53;6.13;;;;;;;;;;5019828;28;20468;-86
2023/06/10 05:15:52;;;;;;;8.13;7.43;;;;;;;;;;5018652;28;20435;-87
2023/06/10 05:18:18;;;;;;;7.93;7.33;;;;;;;;;;5002644;28;20442;-88
2023/06/10 05:20:44;;;;;;;7.60;7.10;;;;;;;;;;4994392;28;20478;-87
2023/06/10 05:23:10;;;;;;;8.90;8.10;;;;;;;;;;5014451;28;20992;-89
2023/06/10 05:25:36;;;;;;;8.00;7.50;;;;;;;;;;5016434;28;20560;-88
2023/06/10 05:28:02;;;;;;;8.13;7.53;;;;;;;;;;5027197;28;20463;-89
2023/06/10 05:30:28;;;;;;;8.73;7.97;;;;;;;;;;5042979;28;20473;-88
2023/06/10 05:32:55;;;;;;;7.90;7.20;;;;;;;;;;5047420;28;20689;-88
2023/06/10 05:35:21;;;;;;;8.60;7.90;;;;;;;;;;5023217;28;20438;-89
2023/06/10 05:37:47;;;;;;;8.57;7.80;;;;;;;;;;5026981;28;20443;-88
2023/06/10 05:40:13;;;;;;;7.90;7.30;;;;;;;;;;5019518;28;20556;-89
2023/06/10 05:42:40;;;;;;;8.17;7.57;;;;;;;;;;5020488;28;20538;-89
2023/06/10 05:45:06;;;;;;;9.43;8.73;;;;;;;;;;5023155;28;20437;-89
2023/06/10 05:47:32;;;;;;;9.47;8.57;;;;;;;;;;5020544;28;20424;-88
2023/06/10 05:49:58;;;;;;;9.30;8.50;;;;;;;;;;5021422;28;20446;-88
2023/06/10 05:52:24;;;;;;;8.80;8.10;;;;;;;;;;5031638;28;20463;-87
2023/06/10 05:54:51;;;;;;;9.47;8.87;;;;;;;;;;5016678;28;20443;-88
2023/06/10 05:57:17;;;;;;;9.40;8.77;;;;;;;;;;5016419;28;20458;-88
2023/06/10 05:59:43;;;;;;;9.20;8.50;;;;;;;;;;5019049;28;20515;-88
2023/06/10 06:02:09;;;;;;;9.83;9.00;;;;;;;;;;5019908;28;20822;-88
2023/06/10 06:04:35;;;;;;;9.43;8.63;;;;;;;;;;5018526;28;20514;-88
2023/06/10 06:07:01;;;;;;;10.27;9.57;;;;;;;;;;5022787;28;21010;-88
2023/06/10 06:09:27;;;;;;;9.60;9.00;;;;;;;;;;5024667;28;20431;-87
2023/06/10 06:11:53;;;;;;;9.80;9.00;;;;;;;;;;5012619;28;20508;-88
2023/06/10 06:14:19;;;;;;;11.43;10.63;;;;;;;;;;5014530;28;20436;-86
2023/06/10 06:16:45;;;;;;;10.43;9.73;;;;;;;;;;5016444;28;20460;-89
2023/06/10 06:19:11;;;;;;;10.80;10.00;;;;;;;;;;5017522;28;21009;-89
2023/06/10 06:21:37;;;;;;;10.40;9.70;;;;;;;;;;5023527;28;20433;-88
2023/06/10 06:24:03;;;;;;;12.23;11.17;;;;;;;;;;5030057;28;20430;-88
2023/06/10 06:26:29;;;;;;;11.63;10.73;;;;;;;;;;5013916;28;20439;-88
2023/06/10 06:28:54;;;;;;;10.30;9.60;;;;;;;;;;5016043;28;20444;-89
2023/06/10 06:31:20;;;;;;;10.70;9.87;;;;;;;;;;5016741;28;20931;-88
2023/06/10 06:33:46;;;;;;;10.37;9.57;;;;;;;;;;5019902;28;20287;-88
2023/06/10 06:36:12;;;;;;;10.37;9.70;;;;;;;;;;5022395;28;20444;-89
2023/06/10 06:38:38;;;;;;;10.33;9.43;;;;;;;;;;5025203;28;20439;-88
2023/06/10 06:41:06;;;;;;;11.20;10.30;;;;;;;;;;5019866;28;20833;-89
2023/06/10 06:43:32;;;;;;;10.13;9.43;;;;;;;;;;5029222;28;20454;-90
2023/06/10 06:45:58;;;;;;;12.33;11.53;;;;;;;;;;5016191;28;21088;-88
2023/06/10 06:48:24;;;;;;;10.87;10.10;;;;;;;;;;4993485;28;20441;-88
2023/06/10 06:50:51;;;;;;;11.97;11.20;;;;;;;;;;4999120;28;20446;-87
2023/06/10 06:53:16;;;;;;;10.77;10.07;;;;;;;;;;5006800;28;20539;-88
2023/06/10 06:55:42;;;;;;;10.80;10.00;;;;;;;;;;4995628;28;20523;-88
2023/06/10 06:58:09;;;;;;;10.90;10.20;;;;;;;;;;5016991;28;20435;-89
2023/06/10 07:00:35;;;;;;;11.90;11.10;;;;;;;;;;5037690;28;20490;-88
2023/06/10 07:03:01;;;;;;;11.53;10.80;;;;;;;;;;5022816;28;20463;-88
2023/06/10 07:05:27;;;;;;;10.97;10.07;;;;;;;;;;5017296;28;20514;-88
2023/06/10 07:07:54;;;;;;;11.17;10.27;;;;;;;;;;5027197;28;20432;-91
2023/06/10 07:10:24;;;;;;;11.37;10.57;;;44.40;30.60;;;;;;4993937;28;20520;-89
2023/06/10 07:12:51;;;;;;;12.47;11.67;;;;;;;;;;5018704;28;20464;-90
2023/06/10 07:15:17;;;;;;;11.03;10.30;;;;;;;;;;5019631;28;20432;-88
2023/06/10 07:17:43;;;;;;;10.97;10.07;;;42.70;32.20;;;;;;5024562;28;20443;-89
2023/06/10 07:20:09;;;;;;;11.50;10.60;;;;;;;;;;4997266;28;20463;-89
2023/06/10 07:22:35;;;;;;;11.13;10.37;;;;;;;;;;5016346;28;21031;-88
2023/06/10 07:25:01;;;;;;;11.03;10.40;;;;;;;;;;4994008;28;20438;-89
2023/06/10 07:27:27;;;;;;;10.30;9.70;;;;;;;;;;5019299;28;20439;-88
2023/06/10 07:29:53;;;;;;;12.10;11.40;;;;;;;;;;5026835;28;20445;-88
2023/06/10 07:32:22;;;;;;;10.37;9.77;;;46.70;29.50;;;;;;5001625;28;20447;-89
2023/06/10 07:34:48;;;;;;;9.97;9.40;;;;;;;;;;5024492;28;20436;-90
2023/06/10 09:32:22;;;;;;;11.13;10.50;;;;;;;;;;4999942;28;20465;-81
2023/06/10 09:34:50;;;;;;;11.73;10.90;;;;;;;;;;4999651;28;20432;-80
2023/06/10 09:37:23;;;;;;;10.53;9.83;;;37.20;37.00;;;;;;4988492;28;20425;-81
2023/06/10 09:40:10;;;;;;;12.37;11.30;;;36.20;42.30;;;;;;5006558;28;20522;-82
2023/06/10 09:42:38;;;;;;;12.60;11.17;;;36.20;42.00;;;;;;5008333;28;20969;-82
2023/06/10 09:45:06;;;;;;;10.97;10.23;;;35.90;38.40;;;;;;5008461;28;20433;-80
2023/06/10 09:47:31;;;;;;;11.40;10.57;;;35.80;40.80;;;;;;4984396;28;20454;-83
2023/06/10 09:49:57;;;;;;;10.50;9.70;;;35.80;40.10;;;;;;5004185;28;21023;-83
2023/06/10 09:52:24;;;;;;;10.70;10.00;;;35.90;40.30;;;;;;5003602;28;20274;-83
2023/06/10 09:54:53;;;;;;;9.93;9.33;;;34.80;39.80;;;;;;5002870;28;20183;-82
2023/06/10 09:57:22;;;;;;;10.70;9.97;;;34.70;40.30;;;;;;5006956;28;20434;-80
2023/06/10 09:59:52;;;;;;;10.43;9.73;;;34.90;41.00;;;;;;5003337;28;20801;-82
2023/06/10 10:02:18;;;;;;;11.73;10.93;;;35.10;41.60;;;;;;5006983;28;20527;-81
2023/06/10 10:04:44;;;;;;;11.17;10.27;;;35.40;41.40;;;;;;5006701;28;20530;-83
2023/06/10 10:07:11;;;;;;;11.13;10.20;;;35.30;40.50;;;;;;5009201;28;20249;-84
2023/06/10 10:09:41;;;;;;;10.43;9.60;;;34.40;40.60;;;;;;5004162;28;22180;-82
2023/06/10 10:12:12;;;;;;;9.07;8.47;;;34.80;41.70;;;;;;4989905;28;20436;-82
2023/06/10 10:14:38;;;;;;;10.47;9.37;;;36.00;40.50;;;;;;5006632;28;20430;-82
2023/06/10 10:17:10;;;;;;;9.90;9.30;;;35.60;41.90;;;;;;4987859;28;20515;-82
2023/06/10 10:19:44;;;;;;;10.43;9.70;;;35.60;39.90;;;;;;4987682;28;20486;-80
2023/06/10 10:22:14;;;;;;;10.30;9.53;;;35.70;39.70;;;;;;5008148;28;20440;-81
2023/06/10 10:24:50;;;;;;;10.73;9.83;;;34.80;38.40;;;;;;4991657;28;21310;-83
2023/06/10 10:27:36;;;;;;;9.90;9.30;;;34.70;39.10;;;;;;5006212;28;20436;-81
2023/06/10 10:30:08;;;;;;;9.77;9.17;;;34.80;40.20;;;;;;5011305;28;20823;-82
2023/06/10 10:33:09;;;;;;;9.90;9.20;;;34.60;40.10;;;;;;5012795;28;20451;-83
2023/06/10 10:35:36;;;;;;;9.77;9.17;;;34.30;40.60;;;;;;5013376;28;20906;-81
2023/06/10 10:38:02;;;;;;;10.27;9.47;;;33.50;41.70;;;;;;5012981;28;20445;-81
2023/06/10 10:40:29;;;;;;;10.40;9.50;;;32.90;43.30;;;;;;5009218;28;20478;-83
2023/06/10 10:42:56;;;;;;;10.10;9.30;;;32.00;45.30;;;;;;5009766;28;20426;-81
2023/06/10 10:45:22;;;;;;;14.80;9.10;;;31.50;45.40;;;;;;5011303;28;20443;-82
2023/06/10 10:47:53;;;;;;;9.67;7.90;;;31.20;46.70;;;;;;5008420;28;20495;-81
2023/06/10 10:50:20;;;;;;;8.23;7.63;;;31.30;46.40;;;;;;5008525;28;22495;-81
2023/06/10 10:53:03;;;;;;;7.27;6.67;;;31.40;46.60;;;;;;5008437;28;20439;-81
2023/06/10 10:55:28;;;;;;;7.73;7.03;;;31.10;47.90;;;;;;5011663;28;21302;-81
2023/06/10 10:58:04;;;;;;;8.77;7.97;;;30.80;46.90;;;;;;4995691;28;20962;-81
2023/06/10 11:00:35;;;;;;;7.93;7.30;;;30.50;47.60;;;;;;5007754;28;20582;-82
2023/06/10 11:03:06;;;;;;;8.53;7.93;;;30.40;48.00;;;;;;5010923;28;21142;-82
2023/06/10 11:05:39;;;;;;;8.40;7.70;;;30.60;49.90;;;;;;5016378;28;20488;-82
2023/06/10 11:08:07;;;;;;;8.37;7.67;;;31.20;48.20;;;;;;5018782;28;20422;-82
2023/06/10 11:10:38;;;;;;;7.57;6.90;;;31.10;48.00;;;;;;5016683;28;20493;-82
2023/06/10 11:13:08;;;;;;;7.53;6.93;;;30.40;49.20;;;;;;5018861;28;20528;-81
2023/06/10 11:15:39;;;;;;;7.03;6.43;;;30.40;49.00;;;;;;5015212;28;20426;-82
2023/06/10 11:18:22;;;;;;;7.60;7.07;;;30.70;47.30;;;;;;5017908;28;20469;-82
2023/06/10 11:20:55;;;;;;;7.60;6.80;;;30.30;47.20;;;;;;4999975;28;20583;-82
2023/06/10 11:23:30;;;;;;;8.20;7.40;;;29.60;47.60;;;;;;5017628;28;20421;-81
2023/06/10 11:26:17;;;;;;;7.67;7.07;;;29.60;48.00;;;;;;5000379;28;20426;-83
2023/06/10 11:29:02;;;;;;;6.63;6.03;;;30.00;48.10;;;;;;5016294;28;20448;-82
2023/06/10 11:31:33;;;;;;;7.10;6.50;;;30.30;48.40;;;;;;5015548;28;20455;-82
2023/06/10 11:34:04;;;;;;;9.40;6.27;;;30.20;47.80;;;;;;5016954;28;20433;-81
2023/06/10 11:36:31;;;;;;;7.10;6.50;;;29.60;48.70;;;;;;5016457;28;20432;-82
2023/06/10 11:38:57;;;;;;;7.10;6.50;;;29.60;49.20;;;;;;5018738;28;20846;-82
2023/06/10 11:41:28;;;;;;;8.50;6.10;;;29.70;48.40;;;;;;5016286;28;20483;-82
2023/06/10 11:43:58;;;;;;;6.73;6.23;;;30.00;49.00;;;;;;5016464;28;20429;-83
2023/06/10 11:46:27;;;;;;;6.43;5.83;;;;;;;;;;5017182;28;20412;-81
2023/06/10 11:49:00;;;;;;;7.00;6.43;;;29.90;47.70;;;;;;5007828;28;20477;-81
2023/06/10 11:51:27;;;;;;;7.53;6.90;;;29.70;50.70;;;;;;5007636;28;20448;-82
2023/06/10 11:53:53;;;;;;;6.93;6.40;;;29.60;49.70;;;;;;5004394;28;21144;-81
2023/06/10 11:56:29;;;;;;;7.77;6.63;;;29.70;49.80;;;;;;5003680;28;20429;-82
2023/06/10 11:59:09;;;;;;;7.70;7.10;;;30.00;47.40;;;;;;5006712;28;20476;-82
2023/06/10 12:01:36;;;;;;;6.73;6.13;;;29.70;47.10;;;;;;5010272;28;20460;-82
2023/06/10 12:04:02;;;;;;;7.00;6.40;;;30.70;46.90;;;;;;5011998;28;20440;-82
2023/06/10 12:06:38;;;;;;;6.40;5.87;;;30.80;45.70;;;;;;5012041;28;20433;-83
2023/06/10 12:09:04;;;;;;;6.20;5.70;;;30.50;46.80;;;;;;5012946;28;20248;-83
2023/06/10 12:11:29;;;;;;;6.50;5.97;;;30.10;47.80;;;;;;5015179;28;20437;-82
2023/06/10 12:13:55;;;;;;;7.17;6.53;;;29.40;47.60;;;;;;4997323;28;20670;-83
2023/06/10 12:16:21;;;;;;;6.97;6.47;;;29.50;48.80;;;;;;5011350;28;20193;-83
2023/06/10 12:18:46;;;;;;;6.40;5.90;;;29.80;47.70;;;;;;4998493;28;20234;-83
2023/06/10 12:21:24;;;;;;;6.40;5.80;;;30.10;47.70;;;;;;5013577;28;20218;-83
2023/06/10 12:24:10;;;;;;;7.27;6.40;;;30.40;46.20;;;;;;4996732;28;20197;-83
2023/06/10 12:26:38;;;;;;;6.07;5.57;;;29.90;46.70;;;;;;4996922;28;20520;-83
2023/06/10 12:29:24;;;;;;;6.63;5.97;;;29.30;47.70;;;;;;5015520;28;20460;-84
2023/06/10 12:31:57;;;;;;;6.00;5.40;;;29.10;47.80;;;;;;5016240;28;20482;-84
2023/06/10 12:34:33;;;;;;;6.43;5.83;;;29.40;48.70;;;;;;5012924;28;20939;-83
2023/06/10 12:37:00;;;;;;;6.47;5.87;;;29.40;47.00;;;;;;5017234;28;20417;-84
2023/06/10 12:39:26;;;;;;;5.87;5.37;;;29.80;47.70;;;;;;4999694;28;20472;-83
2023/06/10 12:41:52;;;;;;;6.17;5.67;;;30.30;46.90;;;;;;5017113;28;20444;-84
2023/06/10 12:44:17;;;;;;;5.90;4.90;;;30.20;46.70;;;;;;5017538;28;20193;-85
2023/06/10 12:46:43;;;;;;;5.90;5.40;;;30.10;46.90;;;;;;5008746;28;20439;-83
2023/06/10 12:49:19;;;;;;;10.03;5.67;;;29.50;46.60;;;;;;5017133;28;20192;-83
2023/06/10 12:51:45;;;;;;;6.07;5.57;;;29.40;47.70;;;;;;5015782;28;20414;-82
2023/06/10 12:54:10;;;;;;;7.73;5.70;;;29.80;46.90;;;;;;5016170;28;22110;-84
2023/06/10 12:56:37;;;;;;;7.30;5.77;;;30.00;47.20;;;;;;5016810;28;20197;-84
2023/06/10 12:59:02;;;;;;;6.43;5.93;;;30.30;47.00;;;;;;5015305;28;20598;-83
2023/06/10 13:01:28;;;;;;;6.07;5.50;;;30.00;46.50;;;;;;5014322;28;20977;-84
2023/06/10 13:03:53;;;;;;;6.67;6.10;;;29.90;48.30;;;;;;5020375;28;20197;-84
2023/06/10 13:06:20;;;;;;;6.40;5.90;;;29.90;47.50;;;;;;5019261;28;20182;-82
2023/06/10 13:08:46;;;;;;;6.87;6.27;;;30.20;47.60;;;;;;5011806;28;20202;-84
2023/06/10 13:11:12;;;;;;;6.87;6.23;;;30.40;47.20;;;;;;5014438;28;20440;-83
2023/06/10 13:13:37;;;;;;;6.53;6.07;;;30.80;45.50;;;;;;4996406;28;20471;-83
2023/06/10 13:16:03;;;;;;;6.40;5.90;;;30.40;44.00;;;;;;4992371;28;20206;-83
2023/06/10 13:18:29;;;;;;;6.37;5.77;;;30.60;45.00;;;;;;5012481;28;20186;-84
2023/06/10 13:20:54;;;;;;;6.73;6.13;;;30.70;45.70;;;;;;4993289;28;20285;-85
2023/06/10 13:23:20;;;;;;;6.27;5.60;;;31.20;46.50;;;;;;5012627;28;20198;-83
2023/06/10 13:25:46;;;;;;;9.00;5.13;;;31.50;44.40;;;;;;5008616;28;20212;-83
2023/06/10 13:28:11;;;;;;;5.73;5.23;;;31.20;44.50;;;;;;5005072;28;20255;-84
2023/06/10 13:30:37;;;;;;;6.73;6.13;;;30.60;44.30;;;;;;5009064;28;20624;-84
2023/06/10 13:33:02;;;;;;;6.90;6.30;;;29.80;45.90;;;;;;5010101;28;20578;-83
2023/06/10 13:35:28;;;;;;;6.30;5.70;;;29.30;46.80;;;;;;5010325;28;20189;-84
2023/06/10 13:37:53;;;;;;;6.90;6.30;;;29.10;48.20;;;;;;5009375;28;20290;-83
2023/06/10 13:40:19;;;;;;;6.03;5.63;;;28.50;47.10;;;;;;5007526;28;20292;-87
2023/06/10 13:42:50;;;;;;;6.27;5.67;;;29.50;48.10;;;;;;5012902;28;20177;-85
2023/06/10 13:45:16;;;;;;;5.70;5.30;;;29.80;47.30;;;;;;5018089;28;20194;-85
2023/06/10 13:47:42;;;;;;;6.33;5.73;;;30.00;47.50;;;;;;5015970;28;20427;-83
2023/06/10 13:50:08;;;;;;;6.00;5.53;;;30.10;46.50;;;;;;5017375;28;20195;-85
2023/06/10 13:52:34;;;;;;;5.93;5.43;;;30.30;46.70;;;;;;5017161;28;20449;-84
2023/06/10 13:54:59;;;;;;;6.33;5.83;;;30.50;46.50;;;;;;4999574;28;20440;-84
2023/06/10 13:57:25;;;;;;;6.10;5.50;;;30.80;47.10;;;;;;4998979;28;20221;-85
2023/06/10 13:59:50;;;;;;;6.40;5.90;;;30.60;47.60;;;;;;5016757;28;20237;-85
2023/06/10 14:02:16;;;;;;;5.93;5.53;;;30.70;46.70;;;;;;5016270;28;20187;-83
2023/06/10 14:04:42;;;;;;;6.53;6.07;;;30.70;46.30;;;;;;5014804;28;20178;-85
2023/06/10 14:07:07;;;;;;;5.60;5.20;;;30.10;46.40;;;;;;5012017;28;20182;-85
2023/06/10 14:09:33;;;;;;;5.70;5.20;;;30.10;47.50;;;;;;4991681;28;20195;-83
2023/06/10 14:11:58;;;;;;;6.60;6.00;;;30.00;48.20;;;;;;5012915;28;20178;-84
2023/06/10 14:14:24;;;;;;;6.27;5.67;;;30.00;48.00;;;;;;5012323;28;20669;-83
2023/06/10 14:16:49;;;;;;;5.70;5.20;;;29.90;47.40;;;;;;4995418;28;20700;-85
2023/06/10 14:19:15;;;;;;;7.57;6.77;;;30.00;47.40;;;;;;5014117;28;20729;-84
2023/06/10 14:21:40;;;;;;;5.90;5.50;;;29.90;46.60;;;;;;4998878;28;20213;-84
2023/06/10 14:24:06;;;;;;;6.20;5.80;;;29.90;47.10;;;;;;4993460;28;20750;-82
2023/06/10 14:26:32;;;;;;;5.53;5.10;;;30.10;47.30;;;;;;5010229;28;20261;-82
2023/06/10 14:28:58;;;;;;;7.40;5.90;;;30.10;46.20;;;;;;5009368;28;20247;-83
2023/06/10 14:31:23;;;;;;;6.40;5.10;;;29.90;47.40;;;;;;5011795;28;21188;-85
2023/06/10 14:33:49;;;;;;;5.87;5.40;;;29.90;46.10;;;;;;5010812;28;20229;-83
2023/06/10 14:36:15;;;;;;;6.43;5.90;;;30.00;46.40;;;;;;5008235;28;20183;-83
2023/06/10 14:38:40;;;;;;;5.73;5.30;;;30.10;46.40;;;;;;5009829;28;20269;-83
2023/06/10 14:41:06;;;;;;;6.37;5.87;;;30.30;45.90;;;;;;4990099;28;20581;-84
2023/06/10 14:43:31;;;;;;;5.80;5.40;;;30.20;45.50;;;;;;5011110;28;20186;-83
2023/06/10 14:45:57;;;;;;;5.83;5.33;;;30.30;45.50;;;;;;5008531;28;20183;-83
2023/06/10 14:48:23;;;;;;;6.33;5.83;;;29.90;45.50;;;;;;5008318;28;20208;-83
2023/06/10 14:50:50;;;;;;;6.23;5.73;;;30.00;46.20;;;;;;5008884;28;20274;-84
2023/06/10 14:53:17;;;;;;;5.80;5.40;;;30.30;45.70;;;;;;5013380;28;20182;-84
2023/06/10 14:55:43;;;;;;;6.60;6.00;;;30.50;46.00;;;;;;4994138;28;20438;-84
2023/06/10 14:58:09;;;;;;;7.43;6.73;;;30.20;47.40;;;;;;5008999;28;21038;-84
2023/06/10 15:00:34;;;;;;;5.67;5.27;;;30.00;47.40;;;;;;5010590;28;20216;-84
2023/06/10 15:03:00;;;;;;;5.90;5.40;;;29.90;47.40;;;;;;5009538;28;20182;-83
2023/06/10 15:05:25;;;;;;;6.50;5.70;;;29.50;47.80;;;;;;5010544;28;20200;-84
2023/06/10 15:07:51;;;;;;;5.30;4.90;;;29.10;48.80;;;;;;5007498;28;20188;-83
2023/06/10 15:10:17;;;;;;;5.40;5.00;;;29.20;47.90;;;;;;5007301;28;20310;-84
2023/06/10 15:12:43;;;;;;;5.83;5.10;;;29.20;46.80;;;;;;4993717;28;20188;-84
2023/06/10 15:15:09;;;;;;;5.87;5.37;;;29.30;47.00;;;;;;4993478;28;20487;-83
2023/06/10 15:17:34;;;;;;;5.80;5.40;;;29.30;47.30;;;;;;5012757;28;20174;-83